sensor_id;sensor_type;location;lat;lon;timestamp;temperature;humidity
52209;DHT22;38507;53.132;6.394;2023-05-07T00:02:22;13.00;99.90
52209;DHT22;38507;53.132;6.394;2023-05-07T00:04:48;13.10;99.90
52209;DHT22;38507;53.132;6.394;2023-05-07T00:07:14;12.90;99.90
52209;DHT22;38507;53.132;6.394;2023-05-07T00:09:40;12.90;99.90
52209;DHT22;38507;53.132;6.394;2023-05-07T00:12:06;12.90;99.90
52209;DHT22;38507;53.132;6.394;2023-05-07T00:14:31;12.90;99.90
52209;DHT22;38507;53.132;6.394;2023-05-07T00:16:57;13.00;99.90
52209;DHT22;38507;53.132;6.394;2023-05-07T00:19:23;12.80;99.90
52209;DHT22;38507;53.132;6.394;2023-05-07T00:21:48;12.80;99.90
52209;DHT22;38507;53.132;6.394;2023-05-07T00:24:14;12.80;99.90
52209;DHT22;38507;53.132;6.394;2023-05-07T00:26:40;12.80;99.90
52209;DHT22;38507;53.132;6.394;2023-05-07T00:29:05;12.80;99.90
52209;DHT22;38507;53.132;6.394;2023-05-07T00:31:31;12.80;99.90
52209;DHT22;38507;53.132;6.394;2023-05-07T00:33:56;12.80;99.90
52209;DHT22;38507;53.132;6.394;2023-05-07T00:36:22;12.70;99.90
52209;DHT22;38507;53.132;6.394;2023-05-07T00:38:48;12.70;99.90
52209;DHT22;38507;53.132;6.394;2023-05-07T00:41:13;12.60;99.90
52209;DHT22;38507;53.132;6.394;2023-05-07T00:43:39;12.60;99.90
52209;DHT22;38507;53.132;6.394;2023-05-07T00:46:05;12.60;99.90
52209;DHT22;38507;53.132;6.394;2023-05-07T00:48:30;12.50;99.90
52209;DHT22;38507;53.132;6.394;2023-05-07T00:50:57;12.60;99.90
52209;DHT22;38507;53.132;6.394;2023-05-07T00:53:22;12.60;99.90
52209;DHT22;38507;53.132;6.394;2023-05-07T00:55:48;12.50;99.90
52209;DHT22;38507;53.132;6.394;2023-05-07T00:58:14;12.50;99.90
52209;DHT22;38507;53.132;6.394;2023-05-07T01:00:40;12.50;99.90
52209;DHT22;38507;53.132;6.394;2023-05-07T01:03:06;12.50;99.90
52209;DHT22;38507;53.132;6.394;2023-05-07T01:05:31;12.50;99.90
52209;DHT22;38507;53.132;6.394;2023-05-07T01:07:58;12.40;99.90
52209;DHT22;38507;53.132;6.394;2023-05-07T01:10:24;12.40;99.90
52209;DHT22;38507;53.132;6.394;2023-05-07T01:12:50;12.40;99.90
52209;DHT22;38507;53.132;6.394;2023-05-07T01:15:16;12.30;99.90
52209;DHT22;38507;53.132;6.394;2023-05-07T01:17:43;12.30;99.90
52209;DHT22;38507;53.132;6.394;2023-05-07T01:20:09;12.30;99.90
52209;DHT22;38507;53.132;6.394;2023-05-07T01:22:37;12.30;99.90
52209;DHT22;38507;53.132;6.394;2023-05-07T01:25:07;12.30;99.90
52209;DHT22;38507;53.132;6.394;2023-05-07T01:27:34;12.20;99.90
52209;DHT22;38507;53.132;6.394;2023-05-07T01:30:01;12.20;99.90
52209;DHT22;38507;53.132;6.394;2023-05-07T01:32:48;12.20;99.90
52209;DHT22;38507;53.132;6.394;2023-05-07T01:35:19;12.20;99.90
52209;DHT22;38507;53.132;6.394;2023-05-07T01:37:46;12.20;99.90
52209;DHT22;38507;53.132;6.394;2023-05-07T01:40:13;12.20;99.90
52209;DHT22;38507;53.132;6.394;2023-05-07T01:42:39;12.10;99.90
52209;DHT22;38507;53.132;6.394;2023-05-07T01:45:06;12.10;99.90
52209;DHT22;38507;53.132;6.394;2023-05-07T01:47:32;12.10;99.90
52209;DHT22;38507;53.132;6.394;2023-05-07T01:49:58;12.10;99.90
52209;DHT22;38507;53.132;6.394;2023-05-07T01:52:24;12.10;99.90
52209;DHT22;38507;53.132;6.394;2023-05-07T01:54:50;12.20;99.90
52209;DHT22;38507;53.132;6.394;2023-05-07T01:57:16;12.00;99.90
52209;DHT22;38507;53.132;6.394;2023-05-07T01:59:41;11.90;99.90
52209;DHT22;38507;53.132;6.394;2023-05-07T02:02:07;11.90;99.90
52209;DHT22;38507;53.132;6.394;2023-05-07T02:04:33;11.90;99.90
52209;DHT22;38507;53.132;6.394;2023-05-07T02:06:58;11.90;99.90
52209;DHT22;38507;53.132;6.394;2023-05-07T02:09:24;11.80;99.90
52209;DHT22;38507;53.132;6.394;2023-05-07T02:11:49;11.80;99.90
52209;DHT22;38507;53.132;6.394;2023-05-07T02:14:15;11.80;99.90
52209;DHT22;38507;53.132;6.394;2023-05-07T02:16:41;11.70;99.90
52209;DHT22;38507;53.132;6.394;2023-05-07T02:19:07;12.00;99.90
52209;DHT22;38507;53.132;6.394;2023-05-07T02:21:32;11.70;99.90
52209;DHT22;38507;53.132;6.394;2023-05-07T02:23:58;11.80;99.90
52209;DHT22;38507;53.132;6.394;2023-05-07T02:26:23;11.70;99.90
52209;DHT22;38507;53.132;6.394;2023-05-07T02:28:50;11.60;99.90
52209;DHT22;38507;53.132;6.394;2023-05-07T02:31:16;11.60;99.90
52209;DHT22;38507;53.132;6.394;2023-05-07T02:33:41;11.60;99.90
52209;DHT22;38507;53.132;6.394;2023-05-07T02:36:10;11.60;99.90
52209;DHT22;38507;53.132;6.394;2023-05-07T02:38:37;11.50;99.90
52209;DHT22;38507;53.132;6.394;2023-05-07T02:41:02;11.50;99.90
52209;DHT22;38507;53.132;6.394;2023-05-07T02:43:28;11.50;99.90
52209;DHT22;38507;53.132;6.394;2023-05-07T02:46:04;11.40;99.90
52209;DHT22;38507;53.132;6.394;2023-05-07T02:48:30;11.40;99.90
52209;DHT22;38507;53.132;6.394;2023-05-07T02:50:56;11.40;99.90
52209;DHT22;38507;53.132;6.394;2023-05-07T02:53:22;11.40;99.90
52209;DHT22;38507;53.132;6.394;2023-05-07T02:55:48;11.40;99.90
52209;DHT22;38507;53.132;6.394;2023-05-07T02:58:13;11.40;99.90
52209;DHT22;38507;53.132;6.394;2023-05-07T03:00:39;11.40;99.90
52209;DHT22;38507;53.132;6.394;2023-05-07T03:03:05;11.40;99.90
52209;DHT22;38507;53.132;6.394;2023-05-07T03:05:31;11.30;99.90
52209;DHT22;38507;53.132;6.394;2023-05-07T03:07:57;11.80;99.90
52209;DHT22;38507;53.132;6.394;2023-05-07T03:10:22;11.50;99.90
52209;DHT22;38507;53.132;6.394;2023-05-07T03:12:48;11.60;99.90
52209;DHT22;38507;53.132;6.394;2023-05-07T03:15:14;11.30;99.90
52209;DHT22;38507;53.132;6.394;2023-05-07T03:17:39;11.60;99.90
52209;DHT22;38507;53.132;6.394;2023-05-07T03:20:06;11.30;99.90
52209;DHT22;38507;53.132;6.394;2023-05-07T03:22:32;11.20;99.90
52209;DHT22;38507;53.132;6.394;2023-05-07T03:24:57;11.20;99.90
52209;DHT22;38507;53.132;6.394;2023-05-07T03:27:23;11.30;99.90
52209;DHT22;38507;53.132;6.394;2023-05-07T03:29:49;11.40;99.90
52209;DHT22;38507;53.132;6.394;2023-05-07T03:32:15;11.40;99.90
52209;DHT22;38507;53.132;6.394;2023-05-07T03:34:40;11.20;99.90
52209;DHT22;38507;53.132;6.394;2023-05-07T03:37:06;11.20;99.90
52209;DHT22;38507;53.132;6.394;2023-05-07T03:39:32;11.20;99.90
52209;DHT22;38507;53.132;6.394;2023-05-07T03:41:58;11.20;99.90
52209;DHT22;38507;53.132;6.394;2023-05-07T03:44:23;11.20;99.90
52209;DHT22;38507;53.132;6.394;2023-05-07T03:46:49;11.20;99.90
52209;DHT22;38507;53.132;6.394;2023-05-07T03:49:15;11.20;99.90
52209;DHT22;38507;53.132;6.394;2023-05-07T03:51:40;11.10;99.90
52209;DHT22;38507;53.132;6.394;2023-05-07T03:54:06;11.60;99.90
52209;DHT22;38507;53.132;6.394;2023-05-07T03:56:32;11.20;99.90
52209;DHT22;38507;53.132;6.394;2023-05-07T03:58:58;11.20;99.90
52209;DHT22;38507;53.132;6.394;2023-05-07T04:01:23;11.10;99.90
52209;DHT22;38507;53.132;6.394;2023-05-07T04:03:49;11.10;99.90
52209;DHT22;38507;53.132;6.394;2023-05-07T04:06:16;11.40;99.90
52209;DHT22;38507;53.132;6.394;2023-05-07T04:08:43;11.20;99.90
52209;DHT22;38507;53.132;6.394;2023-05-07T04:11:08;11.10;99.90
52209;DHT22;38507;53.132;6.394;2023-05-07T04:13:34;11.10;99.90
52209;DHT22;38507;53.132;6.394;2023-05-07T04:16:01;11.10;99.90
52209;DHT22;38507;53.132;6.394;2023-05-07T04:18:28;11.10;99.90
52209;DHT22;38507;53.132;6.394;2023-05-07T04:20:53;11.10;99.90
52209;DHT22;38507;53.132;6.394;2023-05-07T04:23:19;11.10;99.90
52209;DHT22;38507;53.132;6.394;2023-05-07T04:25:45;11.20;99.90
52209;DHT22;38507;53.132;6.394;2023-05-07T04:28:11;11.10;99.90
52209;DHT22;38507;53.132;6.394;2023-05-07T04:30:37;11.10;99.90
52209;DHT22;38507;53.132;6.394;2023-05-07T04:33:02;11.10;99.90
52209;DHT22;38507;53.132;6.394;2023-05-07T04:35:28;11.10;99.90
52209;DHT22;38507;53.132;6.394;2023-05-07T04:37:54;11.10;99.90
52209;DHT22;38507;53.132;6.394;2023-05-07T04:40:19;11.00;99.90
52209;DHT22;38507;53.132;6.394;2023-05-07T04:42:45;11.20;99.90
52209;DHT22;38507;53.132;6.394;2023-05-07T04:45:11;11.40;99.90
52209;DHT22;38507;53.132;6.394;2023-05-07T04:47:38;11.00;99.90
52209;DHT22;38507;53.132;6.394;2023-05-07T04:50:04;11.30;99.90
52209;DHT22;38507;53.132;6.394;2023-05-07T04:52:30;11.00;99.90
52209;DHT22;38507;53.132;6.394;2023-05-07T04:54:58;11.10;99.90
52209;DHT22;38507;53.132;6.394;2023-05-07T04:57:24;11.20;99.90
52209;DHT22;38507;53.132;6.394;2023-05-07T04:59:49;11.20;99.90
52209;DHT22;38507;53.132;6.394;2023-05-07T05:02:15;11.10;99.90
52209;DHT22;38507;53.132;6.394;2023-05-07T05:04:41;11.00;99.90
52209;DHT22;38507;53.132;6.394;2023-05-07T05:07:07;11.00;99.90
52209;DHT22;38507;53.132;6.394;2023-05-07T05:09:32;11.00;99.90
52209;DHT22;38507;53.132;6.394;2023-05-07T05:11:59;11.00;99.90
52209;DHT22;38507;53.132;6.394;2023-05-07T05:14:24;10.90;99.90
52209;DHT22;38507;53.132;6.394;2023-05-07T05:16:50;11.00;99.90
52209;DHT22;38507;53.132;6.394;2023-05-07T05:19:16;11.10;99.90
52209;DHT22;38507;53.132;6.394;2023-05-07T05:21:41;10.90;99.90
52209;DHT22;38507;53.132;6.394;2023-05-07T05:24:07;11.00;99.90
52209;DHT22;38507;53.132;6.394;2023-05-07T05:26:33;10.90;99.90
52209;DHT22;38507;53.132;6.394;2023-05-07T05:28:59;11.10;99.90
52209;DHT22;38507;53.132;6.394;2023-05-07T05:31:24;11.00;99.90
52209;DHT22;38507;53.132;6.394;2023-05-07T05:33:50;10.90;99.90
52209;DHT22;38507;53.132;6.394;2023-05-07T05:36:16;10.90;99.90
52209;DHT22;38507;53.132;6.394;2023-05-07T05:38:42;11.30;99.90
52209;DHT22;38507;53.132;6.394;2023-05-07T05:41:08;11.10;99.90
52209;DHT22;38507;53.132;6.394;2023-05-07T05:43:34;10.90;99.90
52209;DHT22;38507;53.132;6.394;2023-05-07T05:46:00;10.90;99.90
52209;DHT22;38507;53.132;6.394;2023-05-07T05:48:26;11.10;99.90
52209;DHT22;38507;53.132;6.394;2023-05-07T05:50:51;10.90;99.90
52209;DHT22;38507;53.132;6.394;2023-05-07T05:53:17;10.90;99.90
52209;DHT22;38507;53.132;6.394;2023-05-07T05:55:42;11.30;99.90
52209;DHT22;38507;53.132;6.394;2023-05-07T05:58:09;10.90;99.90
52209;DHT22;38507;53.132;6.394;2023-05-07T06:00:35;10.90;99.90
52209;DHT22;38507;53.132;6.394;2023-05-07T06:03:01;10.90;99.90
52209;DHT22;38507;53.132;6.394;2023-05-07T06:05:26;11.00;99.90
52209;DHT22;38507;53.132;6.394;2023-05-07T06:07:52;11.00;99.90
52209;DHT22;38507;53.132;6.394;2023-05-07T06:10:17;11.30;99.90
52209;DHT22;38507;53.132;6.394;2023-05-07T06:12:43;11.00;99.90
52209;DHT22;38507;53.132;6.394;2023-05-07T06:15:10;11.50;99.90
52209;DHT22;38507;53.132;6.394;2023-05-07T06:17:35;11.00;99.90
52209;DHT22;38507;53.132;6.394;2023-05-07T06:20:01;11.00;99.90
52209;DHT22;38507;53.132;6.394;2023-05-07T06:22:27;11.00;99.90
52209;DHT22;38507;53.132;6.394;2023-05-07T06:24:52;11.30;99.90
52209;DHT22;38507;53.132;6.394;2023-05-07T06:27:18;11.10;99.90
52209;DHT22;38507;53.132;6.394;2023-05-07T06:29:44;11.10;99.90
52209;DHT22;38507;53.132;6.394;2023-05-07T06:32:11;11.10;99.90
52209;DHT22;38507;53.132;6.394;2023-05-07T06:34:36;11.20;99.90
52209;DHT22;38507;53.132;6.394;2023-05-07T06:37:02;11.20;99.90
52209;DHT22;38507;53.132;6.394;2023-05-07T06:39:28;11.20;99.90
52209;DHT22;38507;53.132;6.394;2023-05-07T06:41:54;11.30;99.90
52209;DHT22;38507;53.132;6.394;2023-05-07T06:44:20;11.40;99.90
52209;DHT22;38507;53.132;6.394;2023-05-07T06:46:45;11.40;99.90
52209;DHT22;38507;53.132;6.394;2023-05-07T06:49:12;11.40;99.90
52209;DHT22;38507;53.132;6.394;2023-05-07T06:51:38;11.40;99.90
52209;DHT22;38507;53.132;6.394;2023-05-07T06:54:04;11.50;99.90
52209;DHT22;38507;53.132;6.394;2023-05-07T06:56:30;11.40;99.90
52209;DHT22;38507;53.132;6.394;2023-05-07T06:58:56;11.50;99.90
52209;DHT22;38507;53.132;6.394;2023-05-07T07:01:22;11.60;99.90
52209;DHT22;38507;53.132;6.394;2023-05-07T07:03:47;11.50;99.90
52209;DHT22;38507;53.132;6.394;2023-05-07T07:06:13;11.50;99.90
52209;DHT22;38507;53.132;6.394;2023-05-07T07:08:39;11.60;99.90
52209;DHT22;38507;53.132;6.394;2023-05-07T07:11:05;11.50;99.90
52209;DHT22;38507;53.132;6.394;2023-05-07T07:13:31;11.50;99.90
52209;DHT22;38507;53.132;6.394;2023-05-07T07:15:56;11.60;99.90
52209;DHT22;38507;53.132;6.394;2023-05-07T07:18:22;11.60;99.90
52209;DHT22;38507;53.132;6.394;2023-05-07T07:20:48;11.60;99.90
52209;DHT22;38507;53.132;6.394;2023-05-07T07:23:13;11.60;99.90
52209;DHT22;38507;53.132;6.394;2023-05-07T07:25:39;11.70;99.90
52209;DHT22;38507;53.132;6.394;2023-05-07T07:28:05;11.70;99.90
52209;DHT22;38507;53.132;6.394;2023-05-07T07:30:31;12.10;99.90
52209;DHT22;38507;53.132;6.394;2023-05-07T07:32:57;12.20;99.90
52209;DHT22;38507;53.132;6.394;2023-05-07T07:35:31;11.80;99.90
52209;DHT22;38507;53.132;6.394;2023-05-07T07:37:57;11.80;99.90
52209;DHT22;38507;53.132;6.394;2023-05-07T07:40:23;11.80;99.90
52209;DHT22;38507;53.132;6.394;2023-05-07T07:42:48;11.80;99.90
52209;DHT22;38507;53.132;6.394;2023-05-07T07:45:14;11.90;99.90
52209;DHT22;38507;53.132;6.394;2023-05-07T07:47:40;11.90;99.90
52209;DHT22;38507;53.132;6.394;2023-05-07T07:50:07;11.90;99.90
52209;DHT22;38507;53.132;6.394;2023-05-07T07:52:33;12.00;99.90
52209;DHT22;38507;53.132;6.394;2023-05-07T07:54:59;12.00;99.90
52209;DHT22;38507;53.132;6.394;2023-05-07T07:57:25;12.20;99.90
52209;DHT22;38507;53.132;6.394;2023-05-07T07:59:50;12.00;99.90
52209;DHT22;38507;53.132;6.394;2023-05-07T08:02:16;12.00;99.90
52209;DHT22;38507;53.132;6.394;2023-05-07T08:04:42;12.30;99.90
52209;DHT22;38507;53.132;6.394;2023-05-07T08:07:11;12.20;99.90
52209;DHT22;38507;53.132;6.394;2023-05-07T08:09:38;12.10;99.90
52209;DHT22;38507;53.132;6.394;2023-05-07T08:12:04;12.20;99.90
52209;DHT22;38507;53.132;6.394;2023-05-07T08:14:30;12.20;99.90
52209;DHT22;38507;53.132;6.394;2023-05-07T08:16:56;12.20;99.90
52209;DHT22;38507;53.132;6.394;2023-05-07T08:19:21;12.30;99.90
52209;DHT22;38507;53.132;6.394;2023-05-07T08:21:47;12.40;99.90
52209;DHT22;38507;53.132;6.394;2023-05-07T08:24:14;12.50;99.90
52209;DHT22;38507;53.132;6.394;2023-05-07T08:26:40;12.50;99.90
52209;DHT22;38507;53.132;6.394;2023-05-07T08:29:06;12.60;99.90
52209;DHT22;38507;53.132;6.394;2023-05-07T08:31:31;12.70;99.90
52209;DHT22;38507;53.132;6.394;2023-05-07T08:33:57;12.70;99.90
52209;DHT22;38507;53.132;6.394;2023-05-07T08:36:23;12.80;99.90
52209;DHT22;38507;53.132;6.394;2023-05-07T08:38:49;12.80;99.90
52209;DHT22;38507;53.132;6.394;2023-05-07T08:41:15;12.80;99.90
52209;DHT22;38507;53.132;6.394;2023-05-07T08:43:41;12.90;99.90
52209;DHT22;38507;53.132;6.394;2023-05-07T08:46:11;13.30;99.90
52209;DHT22;38507;53.132;6.394;2023-05-07T08:48:38;13.10;99.90
52209;DHT22;38507;53.132;6.394;2023-05-07T08:51:05;13.10;99.90
52209;DHT22;38507;53.132;6.394;2023-05-07T08:53:31;13.10;99.90
52209;DHT22;38507;53.132;6.394;2023-05-07T08:55:56;13.20;99.90
52209;DHT22;38507;53.132;6.394;2023-05-07T08:58:22;13.30;99.90
52209;DHT22;38507;53.132;6.394;2023-05-07T09:00:48;13.40;99.90
52209;DHT22;38507;53.132;6.394;2023-05-07T09:03:13;13.60;99.90
52209;DHT22;38507;53.132;6.394;2023-05-07T09:05:39;13.70;99.90
52209;DHT22;38507;53.132;6.394;2023-05-07T09:08:07;13.80;99.90
52209;DHT22;38507;53.132;6.394;2023-05-07T09:10:33;14.10;99.90
52209;DHT22;38507;53.132;6.394;2023-05-07T09:12:59;13.90;99.90
52209;DHT22;38507;53.132;6.394;2023-05-07T09:15:26;14.00;99.90
52209;DHT22;38507;53.132;6.394;2023-05-07T09:17:52;14.00;99.90
52209;DHT22;38507;53.132;6.394;2023-05-07T09:20:18;14.20;99.90
52209;DHT22;38507;53.132;6.394;2023-05-07T09:22:43;14.30;99.90
52209;DHT22;38507;53.132;6.394;2023-05-07T09:25:09;14.30;99.90
52209;DHT22;38507;53.132;6.394;2023-05-07T09:27:35;14.50;99.90
52209;DHT22;38507;53.132;6.394;2023-05-07T09:30:05;14.40;99.90
52209;DHT22;38507;53.132;6.394;2023-05-07T09:32:34;14.60;99.90
52209;DHT22;38507;53.132;6.394;2023-05-07T09:35:00;14.60;99.90
52209;DHT22;38507;53.132;6.394;2023-05-07T09:37:26;14.70;99.90
52209;DHT22;38507;53.132;6.394;2023-05-07T09:39:52;14.80;99.90
52209;DHT22;38507;53.132;6.394;2023-05-07T09:42:23;14.90;99.90
52209;DHT22;38507;53.132;6.394;2023-05-07T09:44:50;15.00;99.90
52209;DHT22;38507;53.132;6.394;2023-05-07T09:47:20;15.10;99.90
52209;DHT22;38507;53.132;6.394;2023-05-07T09:49:48;15.10;99.90
52209;DHT22;38507;53.132;6.394;2023-05-07T09:52:14;15.20;99.90
52209;DHT22;38507;53.132;6.394;2023-05-07T09:54:41;15.30;99.90
52209;DHT22;38507;53.132;6.394;2023-05-07T09:57:10;15.40;99.90
52209;DHT22;38507;53.132;6.394;2023-05-07T09:59:38;15.50;99.90
52209;DHT22;38507;53.132;6.394;2023-05-07T10:02:04;15.70;99.90
52209;DHT22;38507;53.132;6.394;2023-05-07T10:04:31;16.10;99.90
52209;DHT22;38507;53.132;6.394;2023-05-07T10:06:57;16.10;99.90
52209;DHT22;38507;53.132;6.394;2023-05-07T10:09:25;16.20;99.90
52209;DHT22;38507;53.132;6.394;2023-05-07T10:11:52;16.20;99.90
52209;DHT22;38507;53.132;6.394;2023-05-07T10:14:20;16.30;99.90
52209;DHT22;38507;53.132;6.394;2023-05-07T10:16:47;16.50;99.90
52209;DHT22;38507;53.132;6.394;2023-05-07T10:19:14;16.40;99.90
52209;DHT22;38507;53.132;6.394;2023-05-07T10:21:44;16.60;99.90
52209;DHT22;38507;53.132;6.394;2023-05-07T10:24:34;16.50;99.90
52209;DHT22;38507;53.132;6.394;2023-05-07T10:27:01;16.70;99.90
52209;DHT22;38507;53.132;6.394;2023-05-07T10:29:45;16.90;99.90
52209;DHT22;38507;53.132;6.394;2023-05-07T10:35:12;17.00;99.90
52209;DHT22;38507;53.132;6.394;2023-05-07T10:37:40;17.00;99.90
52209;DHT22;38507;53.132;6.394;2023-05-07T10:40:06;17.20;99.90
52209;DHT22;38507;53.132;6.394;2023-05-07T10:42:32;17.20;99.90
52209;DHT22;38507;53.132;6.394;2023-05-07T10:45:12;17.20;99.90
52209;DHT22;38507;53.132;6.394;2023-05-07T10:48:14;17.20;99.90
52209;DHT22;38507;53.132;6.394;2023-05-07T10:50:41;17.20;99.90
52209;DHT22;38507;53.132;6.394;2023-05-07T10:55:49;17.40;99.90
52209;DHT22;38507;53.132;6.394;2023-05-07T11:00:48;17.80;99.90
52209;DHT22;38507;53.132;6.394;2023-05-07T11:03:14;17.90;99.90
52209;DHT22;38507;53.132;6.394;2023-05-07T11:05:41;18.00;99.90
52209;DHT22;38507;53.132;6.394;2023-05-07T11:08:08;18.20;99.90
52209;DHT22;38507;53.132;6.394;2023-05-07T11:10:54;18.30;99.90
52209;DHT22;38507;53.132;6.394;2023-05-07T11:13:46;18.30;99.90
52209;DHT22;38507;53.132;6.394;2023-05-07T11:16:22;18.40;99.90
52209;DHT22;38507;53.132;6.394;2023-05-07T11:18:50;18.50;99.90
52209;DHT22;38507;53.132;6.394;2023-05-07T11:24:01;18.80;99.90
52209;DHT22;38507;53.132;6.394;2023-05-07T11:26:30;19.10;99.90
52209;DHT22;38507;53.132;6.394;2023-05-07T11:28:56;19.40;99.90
52209;DHT22;38507;53.132;6.394;2023-05-07T11:31:25;19.40;99.90
52209;DHT22;38507;53.132;6.394;2023-05-07T11:33:53;19.50;99.90
52209;DHT22;38507;53.132;6.394;2023-05-07T11:36:20;19.40;99.90
52209;DHT22;38507;53.132;6.394;2023-05-07T11:38:46;19.50;99.90
52209;DHT22;38507;53.132;6.394;2023-05-07T11:41:12;19.60;99.90
52209;DHT22;38507;53.132;6.394;2023-05-07T11:43:38;19.80;99.90
52209;DHT22;38507;53.132;6.394;2023-05-07T11:46:12;19.90;99.90
52209;DHT22;38507;53.132;6.394;2023-05-07T11:48:39;20.00;99.90
52209;DHT22;38507;53.132;6.394;2023-05-07T11:51:07;20.20;99.90
52209;DHT22;38507;53.132;6.394;2023-05-07T11:53:39;20.30;99.90
52209;DHT22;38507;53.132;6.394;2023-05-07T11:56:15;20.30;99.90
52209;DHT22;38507;53.132;6.394;2023-05-07T11:58:43;20.10;99.90
52209;DHT22;38507;53.132;6.394;2023-05-07T12:01:09;20.10;99.90
52209;DHT22;38507;53.132;6.394;2023-05-07T12:03:36;20.10;99.90
52209;DHT22;38507;53.132;6.394;2023-05-07T12:06:08;20.30;99.90
52209;DHT22;38507;53.132;6.394;2023-05-07T12:08:38;20.50;99.90
52209;DHT22;38507;53.132;6.394;2023-05-07T12:11:07;20.40;99.90
52209;DHT22;38507;53.132;6.394;2023-05-07T12:13:34;20.50;99.90
52209;DHT22;38507;53.132;6.394;2023-05-07T12:15:59;20.50;99.90
52209;DHT22;38507;53.132;6.394;2023-05-07T12:18:26;20.30;99.90
52209;DHT22;38507;53.132;6.394;2023-05-07T12:20:53;20.40;99.90
52209;DHT22;38507;53.132;6.394;2023-05-07T12:23:19;20.60;99.90
52209;DHT22;38507;53.132;6.394;2023-05-07T12:25:45;20.80;99.90
52209;DHT22;38507;53.132;6.394;2023-05-07T12:28:18;20.80;99.90
52209;DHT22;38507;53.132;6.394;2023-05-07T12:30:46;20.90;99.90
52209;DHT22;38507;53.132;6.394;2023-05-07T12:33:16;21.20;99.90
52209;DHT22;38507;53.132;6.394;2023-05-07T12:35:43;21.40;99.90
52209;DHT22;38507;53.132;6.394;2023-05-07T12:38:10;21.50;99.90
52209;DHT22;38507;53.132;6.394;2023-05-07T12:40:42;21.60;99.90
52209;DHT22;38507;53.132;6.394;2023-05-07T12:43:15;21.60;99.90
52209;DHT22;38507;53.132;6.394;2023-05-07T12:45:42;21.60;99.90
52209;DHT22;38507;53.132;6.394;2023-05-07T12:48:10;21.90;99.90
52209;DHT22;38507;53.132;6.394;2023-05-07T12:50:36;21.90;99.90
52209;DHT22;38507;53.132;6.394;2023-05-07T12:53:04;21.70;99.90
52209;DHT22;38507;53.132;6.394;2023-05-07T12:55:45;21.80;99.90
52209;DHT22;38507;53.132;6.394;2023-05-07T12:58:30;21.90;99.90
52209;DHT22;38507;53.132;6.394;2023-05-07T13:01:01;21.80;99.90
52209;DHT22;38507;53.132;6.394;2023-05-07T13:03:31;21.80;99.90
52209;DHT22;38507;53.132;6.394;2023-05-07T13:06:04;21.90;99.90
52209;DHT22;38507;53.132;6.394;2023-05-07T13:08:32;21.90;99.90
52209;DHT22;38507;53.132;6.394;2023-05-07T13:11:00;22.00;99.90
52209;DHT22;38507;53.132;6.394;2023-05-07T13:13:29;22.10;99.90
52209;DHT22;38507;53.132;6.394;2023-05-07T13:15:55;22.00;99.90
52209;DHT22;38507;53.132;6.394;2023-05-07T13:18:21;22.10;99.90
52209;DHT22;38507;53.132;6.394;2023-05-07T13:20:46;22.00;99.90
52209;DHT22;38507;53.132;6.394;2023-05-07T13:23:12;22.10;99.90
52209;DHT22;38507;53.132;6.394;2023-05-07T13:25:38;21.90;99.90
52209;DHT22;38507;53.132;6.394;2023-05-07T13:28:03;22.00;99.90
52209;DHT22;38507;53.132;6.394;2023-05-07T13:30:30;22.20;99.90
52209;DHT22;38507;53.132;6.394;2023-05-07T13:32:55;22.30;99.90
52209;DHT22;38507;53.132;6.394;2023-05-07T13:35:21;22.30;99.90
52209;DHT22;38507;53.132;6.394;2023-05-07T13:37:47;22.40;99.90
52209;DHT22;38507;53.132;6.394;2023-05-07T13:40:17;22.60;99.90
52209;DHT22;38507;53.132;6.394;2023-05-07T13:42:43;22.80;99.90
52209;DHT22;38507;53.132;6.394;2023-05-07T13:45:09;22.70;99.90
52209;DHT22;38507;53.132;6.394;2023-05-07T13:47:35;22.80;99.90
52209;DHT22;38507;53.132;6.394;2023-05-07T13:50:00;23.00;99.90
52209;DHT22;38507;53.132;6.394;2023-05-07T13:52:26;22.70;99.90
52209;DHT22;38507;53.132;6.394;2023-05-07T13:54:52;22.70;99.90
52209;DHT22;38507;53.132;6.394;2023-05-07T13:57:18;22.70;99.90
52209;DHT22;38507;53.132;6.394;2023-05-07T13:59:43;22.70;99.90
52209;DHT22;38507;53.132;6.394;2023-05-07T14:02:09;22.80;99.90
52209;DHT22;38507;53.132;6.394;2023-05-07T14:04:37;22.70;99.90
52209;DHT22;38507;53.132;6.394;2023-05-07T14:07:03;22.60;99.90
52209;DHT22;38507;53.132;6.394;2023-05-07T14:09:28;22.60;99.90
52209;DHT22;38507;53.132;6.394;2023-05-07T14:11:54;22.60;99.90
52209;DHT22;38507;53.132;6.394;2023-05-07T14:14:20;22.40;99.90
52209;DHT22;38507;53.132;6.394;2023-05-07T14:16:46;22.50;99.90
52209;DHT22;38507;53.132;6.394;2023-05-07T14:19:12;22.30;99.90
52209;DHT22;38507;53.132;6.394;2023-05-07T14:21:37;22.40;99.90
52209;DHT22;38507;53.132;6.394;2023-05-07T14:24:04;22.60;99.90
52209;DHT22;38507;53.132;6.394;2023-05-07T14:26:29;22.80;99.90
52209;DHT22;38507;53.132;6.394;2023-05-07T14:28:55;22.80;99.90
52209;DHT22;38507;53.132;6.394;2023-05-07T14:31:23;22.70;99.90
52209;DHT22;38507;53.132;6.394;2023-05-07T14:33:49;22.50;99.90
52209;DHT22;38507;53.132;6.394;2023-05-07T14:36:16;22.50;99.90
52209;DHT22;38507;53.132;6.394;2023-05-07T14:38:42;22.40;99.90
52209;DHT22;38507;53.132;6.394;2023-05-07T14:41:08;22.20;99.90
52209;DHT22;38507;53.132;6.394;2023-05-07T14:43:34;22.10;99.90
52209;DHT22;38507;53.132;6.394;2023-05-07T14:45:59;22.20;99.90
52209;DHT22;38507;53.132;6.394;2023-05-07T14:48:25;22.20;99.90
52209;DHT22;38507;53.132;6.394;2023-05-07T14:50:51;22.10;99.90
52209;DHT22;38507;53.132;6.394;2023-05-07T14:53:16;22.00;99.90
52209;DHT22;38507;53.132;6.394;2023-05-07T14:55:42;22.00;99.90
52209;DHT22;38507;53.132;6.394;2023-05-07T14:58:08;21.90;99.90
52209;DHT22;38507;53.132;6.394;2023-05-07T15:00:33;22.10;99.90
52209;DHT22;38507;53.132;6.394;2023-05-07T15:03:06;22.40;99.90
52209;DHT22;38507;53.132;6.394;2023-05-07T15:05:32;22.50;99.90
52209;DHT22;38507;53.132;6.394;2023-05-07T15:07:58;22.80;99.90
52209;DHT22;38507;53.132;6.394;2023-05-07T15:10:24;22.50;99.90
52209;DHT22;38507;53.132;6.394;2023-05-07T15:12:49;22.40;99.90
52209;DHT22;38507;53.132;6.394;2023-05-07T15:15:15;22.50;99.90
52209;DHT22;38507;53.132;6.394;2023-05-07T15:17:41;22.40;99.90
52209;DHT22;38507;53.132;6.394;2023-05-07T15:20:07;22.40;99.90
52209;DHT22;38507;53.132;6.394;2023-05-07T15:22:33;22.50;99.90
52209;DHT22;38507;53.132;6.394;2023-05-07T15:24:59;22.40;99.90
52209;DHT22;38507;53.132;6.394;2023-05-07T15:27:25;22.20;99.90
52209;DHT22;38507;53.132;6.394;2023-05-07T15:29:51;22.10;99.90
52209;DHT22;38507;53.132;6.394;2023-05-07T15:32:17;22.10;99.90
52209;DHT22;38507;53.132;6.394;2023-05-07T15:34:42;22.00;99.90
52209;DHT22;38507;53.132;6.394;2023-05-07T15:37:08;21.90;99.90
52209;DHT22;38507;53.132;6.394;2023-05-07T15:39:34;22.10;99.90